createdAt,value
2022-12-07T00:00:33.216Z,90.466667
2022-12-07T00:05:16.767Z,91.000000
2022-12-07T00:10:18.855Z,91.000000
2022-12-07T00:15:22.100Z,91.000000
2022-12-07T00:20:24.580Z,91.000000
2022-12-07T00:25:28.765Z,91.000000
2022-12-07T00:30:30.328Z,91.000000
2022-12-07T00:35:33.243Z,91.000000
2022-12-07T00:40:15.947Z,91.000000
2022-12-07T00:45:20.058Z,91.000000
2022-12-07T00:50:21.842Z,91.000000
2022-12-07T00:55:25.628Z,91.000000
2022-12-07T01:00:28.554Z,91.933333
2022-12-07T01:05:30.731Z,92.000000
2022-12-07T01:10:34.103Z,92.000000
2022-12-07T01:15:16.712Z,92.000000
2022-12-07T01:20:22.147Z,92.000000
2022-12-07T01:25:24.245Z,92.000000
2022-12-07T01:30:28.203Z,92.000000
2022-12-07T01:35:29.946Z,92.000000
2022-12-07T01:40:32.653Z,92.000000
2022-12-07T01:45:35.936Z,92.000000
2022-12-07T01:50:18.456Z,92.133333
2022-12-07T01:55:20.789Z,93.000000
2022-12-07T02:00:24.724Z,93.000000
2022-12-07T02:05:28.004Z,93.000000
2022-12-07T02:10:30.922Z,93.000000
2022-12-07T02:15:33.288Z,93.000000
2022-12-07T02:20:35.861Z,93.000000
2022-12-07T02:25:19.212Z,93.000000
2022-12-07T02:30:22.299Z,93.000000
2022-12-07T02:35:25.864Z,93.000000
2022-12-07T02:40:28.815Z,92.933333
2022-12-07T02:45:31.970Z,92.133333
2022-12-07T02:50:35.200Z,92.000000
2022-12-07T02:55:17.624Z,92.000000
2022-12-07T03:00:20.433Z,92.000000
2022-12-07T03:05:23.925Z,92.000000
2022-12-07T03:10:26.981Z,92.000000
2022-12-07T03:15:30.433Z,92.000000
2022-12-07T03:20:31.725Z,92.000000
2022-12-07T03:25:34.296Z,92.000000
2022-12-07T03:30:17.170Z,92.000000
2022-12-07T03:35:21.145Z,92.066667
2022-12-07T03:40:22.421Z,92.857143
2022-12-07T03:45:26.945Z,93.000000
2022-12-07T03:50:28.702Z,93.000000
2022-12-07T03:55:31.311Z,93.000000
2022-12-07T04:00:34.624Z,93.000000
2022-12-07T04:05:19.834Z,93.000000
2022-12-07T04:10:20.849Z,93.000000
2022-12-07T04:15:23.594Z,93.000000
2022-12-07T04:20:25.947Z,93.000000
2022-12-07T04:25:29.845Z,93.000000
2022-12-07T04:30:31.779Z,93.000000
2022-12-07T04:35:35.289Z,93.200000
2022-12-07T04:40:17.936Z,94.000000
2022-12-07T04:45:19.856Z,94.000000
2022-12-07T04:50:22.923Z,94.000000
2022-12-07T04:55:25.880Z,94.000000
2022-12-07T05:00:29.313Z,94.000000
2022-12-07T05:05:32.464Z,94.000000
2022-12-07T05:10:35.315Z,94.000000
2022-12-07T05:15:17.903Z,94.000000
2022-12-07T05:20:21.178Z,94.000000
2022-12-07T05:25:24.112Z,94.000000
2022-12-07T05:30:26.688Z,94.000000
2022-12-07T05:35:30.055Z,94.000000
2022-12-07T05:40:33.595Z,94.000000
2022-12-07T05:45:36.084Z,94.000000
2022-12-07T05:50:18.178Z,94.000000
2022-12-07T05:55:20.988Z,94.000000
2022-12-07T06:00:23.797Z,94.000000
2022-12-07T06:05:26.145Z,94.000000
2022-12-07T06:10:29.066Z,94.000000
2022-12-07T06:15:31.964Z,94.000000
2022-12-07T06:20:36.137Z,94.000000
2022-12-07T06:25:18.018Z,94.000000
2022-12-07T06:30:22.117Z,94.000000
2022-12-07T06:35:23.945Z,94.000000
2022-12-07T06:40:27.056Z,94.000000
2022-12-07T06:45:30.275Z,94.800000
2022-12-07T06:50:32.903Z,95.000000
2022-12-07T06:55:35.491Z,95.000000
2022-12-07T07:00:21.756Z,94.533333
2022-12-07T07:05:21.321Z,94.000000
2022-12-07T07:10:24.091Z,94.000000
2022-12-07T07:15:26.953Z,94.000000
2022-12-07T07:20:29.653Z,94.000000
2022-12-07T07:25:32.524Z,94.000000
2022-12-07T07:30:35.144Z,93.600000
2022-12-07T07:35:17.377Z,93.000000
2022-12-07T07:40:20.058Z,93.000000
2022-12-07T07:45:23.121Z,93.000000
2022-12-07T07:50:25.725Z,93.000000
2022-12-07T07:55:28.573Z,93.000000
2022-12-07T08:00:31.490Z,93.000000
2022-12-07T08:05:34.373Z,93.000000
2022-12-07T08:10:18.369Z,93.000000
2022-12-07T08:15:20.427Z,93.000000
2022-12-07T08:20:22.943Z,93.000000
2022-12-07T08:25:25.561Z,93.000000
2022-12-07T08:30:28.655Z,92.866667
2022-12-07T08:35:30.573Z,92.000000
2022-12-07T08:40:33.285Z,92.000000
2022-12-07T08:45:37.159Z,92.000000
2022-12-07T08:50:18.571Z,92.000000
2022-12-07T08:55:22.557Z,92.200000
2022-12-07T09:00:25.611Z,92.285714
2022-12-07T09:05:30.209Z,92.000000
2022-12-07T09:10:32.195Z,92.333333
2022-12-07T09:15:34.992Z,92.000000
2022-12-07T09:20:21.018Z,92.000000
2022-12-07T09:25:20.826Z,92.000000
2022-12-07T09:30:23.834Z,92.000000
2022-12-07T09:35:26.820Z,92.000000
2022-12-07T09:40:30.137Z,92.000000
2022-12-07T09:45:33.943Z,92.000000
2022-12-07T09:50:35.535Z,92.000000
2022-12-07T09:55:17.849Z,92.000000
2022-12-07T10:00:20.410Z,92.000000
2022-12-07T10:05:25.436Z,92.000000
2022-12-07T10:10:26.422Z,92.000000
2022-12-07T10:15:29.279Z,92.000000
2022-12-07T10:20:32.376Z,92.000000
2022-12-07T10:25:17.164Z,92.000000
2022-12-07T10:30:18.842Z,92.000000
2022-12-07T10:35:21.920Z,92.000000
2022-12-07T10:40:24.687Z,92.000000
2022-12-07T10:45:27.880Z,92.000000
2022-12-07T10:50:31.022Z,92.000000
2022-12-07T10:55:33.940Z,92.000000
2022-12-07T11:00:16.072Z,92.000000
2022-12-07T11:05:18.944Z,92.000000
2022-12-07T11:10:21.734Z,92.000000
2022-12-07T11:15:24.677Z,91.285714
2022-12-07T11:20:27.208Z,91.133333
2022-12-07T11:25:32.240Z,91.133333
2022-12-07T11:30:33.795Z,91.000000
2022-12-07T11:35:15.970Z,91.000000
2022-12-07T11:40:18.754Z,91.000000
2022-12-07T11:45:22.174Z,91.000000
2022-12-07T11:50:25.088Z,91.000000
2022-12-07T11:55:27.963Z,91.000000
2022-12-07T12:00:30.450Z,90.266667
2022-12-07T12:05:33.267Z,90.800000
2022-12-07T12:10:16.329Z,91.333333
2022-12-07T12:15:19.074Z,91.466667
2022-12-07T12:20:22.306Z,91.000000
2022-12-07T12:25:25.466Z,90.333333
2022-12-07T12:30:28.009Z,89.666667
2022-12-07T12:35:30.463Z,89.000000
2022-12-07T12:40:33.188Z,89.000000
2022-12-07T12:45:36.496Z,89.000000
2022-12-07T12:50:18.018Z,89.000000
2022-12-07T12:55:21.649Z,89.000000
2022-12-07T13:00:24.081Z,88.857143
2022-12-07T13:05:26.955Z,89.000000
2022-12-07T13:10:29.474Z,89.000000
2022-12-07T13:15:32.453Z,89.000000
2022-12-07T13:20:35.250Z,89.000000
2022-12-07T13:25:20.578Z,89.000000
2022-12-07T13:30:20.487Z,89.000000
2022-12-07T13:35:23.175Z,89.000000
2022-12-07T13:40:25.570Z,89.000000
2022-12-07T13:45:28.599Z,89.400000
2022-12-07T13:50:31.432Z,90.000000
2022-12-07T13:55:34.352Z,89.266667
2022-12-07T14:00:16.345Z,89.000000
2022-12-07T14:05:19.020Z,89.000000
2022-12-07T14:10:22.508Z,89.000000
2022-12-07T14:15:25.319Z,89.000000
2022-12-07T14:20:28.881Z,89.000000
2022-12-07T14:25:31.934Z,89.000000
2022-12-07T14:30:35.063Z,89.000000
2022-12-07T14:35:17.710Z,88.000000
2022-12-07T14:40:22.125Z,88.000000
2022-12-07T14:45:25.875Z,88.000000
2022-12-07T14:50:30.523Z,88.000000
2022-12-07T14:55:34.111Z,88.000000
2022-12-07T15:00:16.064Z,88.000000
2022-12-07T15:05:19.654Z,88.000000
2022-12-07T15:10:24.440Z,88.000000
2022-12-07T15:15:30.824Z,88.000000
2022-12-07T15:20:28.317Z,88.000000
2022-12-07T15:25:31.692Z,88.000000
2022-12-07T15:30:34.179Z,88.000000
2022-12-07T15:35:18.241Z,88.200000
2022-12-07T15:40:20.361Z,89.000000
2022-12-07T15:45:23.312Z,89.000000
2022-12-07T15:50:26.047Z,89.000000
2022-12-07T15:55:28.801Z,89.000000
2022-12-07T16:00:32.615Z,89.000000
2022-12-07T16:05:34.629Z,89.000000
2022-12-07T16:10:17.657Z,88.866667
2022-12-07T16:15:24.429Z,89.000000
2022-12-07T16:20:22.480Z,89.000000
2022-12-07T16:25:24.761Z,88.133333
2022-12-07T16:30:27.258Z,87.533333
2022-12-07T16:35:29.674Z,87.066667
2022-12-07T16:40:32.252Z,87.800000
2022-12-07T16:45:34.985Z,87.733333
2022-12-07T16:50:17.853Z,87.466667
2022-12-07T16:55:19.931Z,87.333333
2022-12-07T17:00:22.460Z,87.000000
2022-12-07T17:05:26.901Z,87.000000
2022-12-07T17:10:28.700Z,87.466667
2022-12-07T17:15:31.245Z,87.200000
2022-12-07T17:20:34.331Z,86.933333
2022-12-07T17:25:17.822Z,87.000000
2022-12-07T17:30:19.151Z,86.666667
2022-12-07T17:35:22.963Z,86.200000
2022-12-07T17:40:24.219Z,85.642857
2022-12-07T17:45:26.948Z,85.133333
2022-12-07T17:50:29.432Z,85.000000
2022-12-07T17:55:49.532Z,84.800000
2022-12-07T18:00:34.687Z,84.266667
2022-12-07T18:05:17.202Z,84.600000
2022-12-07T18:10:21.844Z,84.800000
2022-12-07T18:15:23.245Z,85.000000
2022-12-07T18:20:26.191Z,85.000000
2022-12-07T18:25:28.627Z,85.000000
2022-12-07T18:31:12.710Z,85.000000
2022-12-07T18:35:33.916Z,85.000000
2022-12-07T18:40:16.377Z,85.000000
2022-12-07T18:45:19.236Z,85.533333
2022-12-07T18:50:22.308Z,85.214286
2022-12-07T18:55:24.718Z,86.000000
2022-12-07T19:00:27.279Z,85.533333
2022-12-07T19:05:29.686Z,84.733333
2022-12-07T19:10:32.838Z,85.000000
2022-12-07T19:15:35.522Z,85.000000
2022-12-07T19:20:17.884Z,85.000000
2022-12-07T19:25:20.935Z,84.333333
2022-12-07T19:30:23.803Z,84.285714
2022-12-07T19:35:26.776Z,84.000000
2022-12-07T19:40:29.041Z,83.800000
2022-12-07T19:45:32.021Z,83.466667
2022-12-07T19:50:34.249Z,83.666667
2022-12-07T19:55:16.962Z,83.533333
2022-12-07T20:00:19.656Z,83.400000
2022-12-07T20:05:22.405Z,84.000000
2022-12-07T20:10:26.450Z,84.333333
2022-12-07T20:15:27.553Z,84.733333
2022-12-07T20:20:30.104Z,84.666667
2022-12-07T20:25:35.077Z,84.200000
2022-12-07T20:30:35.606Z,84.333333
2022-12-07T20:35:17.777Z,84.733333
2022-12-07T20:40:20.179Z,85.000000
2022-12-07T20:45:22.933Z,84.642857
2022-12-07T20:50:25.470Z,84.000000
2022-12-07T20:55:29.712Z,84.400000
2022-12-07T21:00:32.344Z,85.000000
2022-12-07T21:05:34.126Z,85.266667
2022-12-07T21:10:16.292Z,85.666667
2022-12-07T21:15:18.943Z,85.933333
2022-12-07T21:20:21.761Z,86.000000
2022-12-07T21:25:23.814Z,86.000000
2022-12-07T21:30:26.429Z,85.666667
2022-12-07T21:35:28.796Z,85.800000
2022-12-07T21:40:31.732Z,86.000000
2022-12-07T21:45:34.527Z,86.000000
2022-12-07T21:50:16.607Z,86.200000
2022-12-07T21:55:19.376Z,86.933333
2022-12-07T22:00:21.795Z,87.000000
2022-12-07T22:05:24.943Z,87.000000
2022-12-07T22:10:27.331Z,87.000000
2022-12-07T22:15:29.976Z,87.000000
2022-12-07T22:20:32.607Z,86.800000
2022-12-07T22:25:35.404Z,86.133333
2022-12-07T22:30:18.207Z,86.933333
2022-12-07T22:35:20.993Z,87.133333
2022-12-07T22:40:23.615Z,87.285714
2022-12-07T22:45:25.899Z,87.066667
2022-12-07T22:50:28.748Z,87.000000
2022-12-07T22:55:31.070Z,87.000000
2022-12-07T23:00:33.265Z,87.000000
2022-12-07T23:05:36.536Z,87.000000
2022-12-07T23:10:18.832Z,87.000000
2022-12-07T23:15:20.315Z,87.000000
2022-12-07T23:20:22.965Z,87.000000
2022-12-07T23:25:25.779Z,87.133333
2022-12-07T23:30:28.144Z,87.266667
2022-12-07T23:35:30.754Z,87.666667
2022-12-07T23:40:33.979Z,88.000000
2022-12-07T23:45:35.445Z,88.000000
2022-12-07T23:50:17.480Z,88.000000
2022-12-07T23:55:20.234Z,88.000000
